createdAt,value
2022-10-01T00:01:29.140Z,4.17
2022-10-01T00:04:20.585Z,4.12
2022-10-01T00:07:13.179Z,5.17
2022-10-01T00:10:04.926Z,5.62
2022-10-01T00:12:56.048Z,6.45
2022-10-01T00:15:47.351Z,6.62
2022-10-01T00:18:39.995Z,6.03
2022-10-01T00:21:33.804Z,6.50
2022-10-01T00:24:25.088Z,6.95
2022-10-01T00:27:16.352Z,5.92
2022-10-01T00:30:10.569Z,5.45
2022-10-01T00:33:01.721Z,4.05
2022-10-01T00:35:56.171Z,4.00
2022-10-01T00:38:48.613Z,3.90
2022-10-01T00:41:40.157Z,3.75
2022-10-01T00:44:35.013Z,4.08
2022-10-01T00:47:30.443Z,3.70
2022-10-01T00:50:24.879Z,3.60
2022-10-01T00:53:16.676Z,3.02
2022-10-01T00:56:08.615Z,3.20
2022-10-01T00:59:01.122Z,3.72
2022-10-01T01:01:52.913Z,4.17
2022-10-01T01:04:45.014Z,3.47
2022-10-01T01:07:39.951Z,3.27
2022-10-01T01:10:34.649Z,3.22
2022-10-01T01:13:30.266Z,2.87
2022-10-01T01:16:33.852Z,3.52
2022-10-01T01:19:32.572Z,3.45
2022-10-01T01:25:18.683Z,3.33
2022-10-01T01:28:14.329Z,3.62
2022-10-01T01:31:09.012Z,3.52
2022-10-01T01:34:02.011Z,3.55
2022-10-01T01:36:56.921Z,3.40
2022-10-01T01:42:36.810Z,3.85
2022-10-01T01:48:13.752Z,3.95
2022-10-01T01:51:08.449Z,3.77
2022-10-01T01:54:00.077Z,3.90
2022-10-01T01:56:52.374Z,3.80
2022-10-01T01:59:44.551Z,3.40
2022-10-01T02:02:39.528Z,3.20
2022-10-01T02:05:33.662Z,3.42
2022-10-01T02:08:34.672Z,3.42
2022-10-01T02:11:30.236Z,3.37
2022-10-01T02:14:24.768Z,3.10
2022-10-01T02:17:19.733Z,3.10
2022-10-01T02:20:14.008Z,3.22
2022-10-01T02:23:09.921Z,2.90
2022-10-01T02:26:05.159Z,2.72
2022-10-01T02:31:42.787Z,2.77
2022-10-01T02:34:34.555Z,2.80
2022-10-01T02:37:28.232Z,2.83
2022-10-01T02:40:22.470Z,2.98
2022-10-01T02:43:17.175Z,2.87
2022-10-01T02:46:12.079Z,2.98
2022-10-01T02:49:04.586Z,3.10
2022-10-01T02:51:59.590Z,3.22
2022-10-01T02:54:53.871Z,2.80
2022-10-01T02:57:45.593Z,3.22
2022-10-01T03:00:36.557Z,2.85
2022-10-01T03:03:27.828Z,2.60
2022-10-01T03:06:19.101Z,3.52
2022-10-01T03:09:10.818Z,2.42
2022-10-01T03:12:02.864Z,2.52
2022-10-01T03:14:54.010Z,2.35
2022-10-01T03:17:45.289Z,2.30
2022-10-01T03:20:36.546Z,2.10
2022-10-01T03:23:27.710Z,2.10
2022-10-01T03:26:19.080Z,2.60
2022-10-01T03:29:10.714Z,2.50
2022-10-01T03:32:02.226Z,2.02
2022-10-01T03:34:53.684Z,2.50
2022-10-01T03:37:45.197Z,2.12
2022-10-01T03:40:37.987Z,2.10
2022-10-01T03:43:29.643Z,2.30
2022-10-01T03:46:20.690Z,2.40
2022-10-01T03:49:12.141Z,2.17
2022-10-01T03:52:03.538Z,2.50
2022-10-01T03:54:54.897Z,1.85
2022-10-01T03:57:45.996Z,2.10
2022-10-01T04:00:37.226Z,1.80
2022-10-01T04:03:28.307Z,1.92
2022-10-01T04:06:19.871Z,2.40
2022-10-01T04:09:10.962Z,1.90
2022-10-01T04:12:03.027Z,2.00
2022-10-01T04:14:54.417Z,2.17
2022-10-01T04:17:46.235Z,2.12
2022-10-01T04:20:39.357Z,2.55
2022-10-01T04:23:30.371Z,2.58
2022-10-01T04:26:21.700Z,2.33
2022-10-01T04:29:13.238Z,2.15
2022-10-01T04:32:05.057Z,2.27
2022-10-01T04:34:56.653Z,2.58
2022-10-01T04:37:47.981Z,2.05
2022-10-01T04:40:40.137Z,1.90
2022-10-01T04:43:31.668Z,1.70
2022-10-01T04:46:23.217Z,1.80
2022-10-01T04:49:14.681Z,2.30
2022-10-01T04:52:06.729Z,2.77
2022-10-01T04:54:58.395Z,1.95
2022-10-01T04:57:49.844Z,2.10
2022-10-01T05:00:43.417Z,2.50
2022-10-01T05:03:35.705Z,2.15
2022-10-01T05:06:27.466Z,2.50
2022-10-01T05:09:19.056Z,2.22
2022-10-01T05:12:10.754Z,2.42
2022-10-01T05:15:03.249Z,2.22
2022-10-01T05:17:55.501Z,2.35
2022-10-01T05:20:47.087Z,2.10
2022-10-01T05:23:38.919Z,2.33
2022-10-01T05:26:32.217Z,2.02
2022-10-01T05:29:23.796Z,1.90
2022-10-01T05:32:15.713Z,1.80
2022-10-01T05:35:08.691Z,1.98
2022-10-01T05:38:02.748Z,2.15
2022-10-01T05:40:54.157Z,1.80
2022-10-01T05:43:45.845Z,2.08
2022-10-01T05:46:36.969Z,2.20
2022-10-01T05:49:28.670Z,2.05
2022-10-01T05:52:19.959Z,2.20
2022-10-01T05:55:11.760Z,1.90
2022-10-01T05:58:05.457Z,1.50
2022-10-01T06:00:58.786Z,1.87
2022-10-01T06:03:53.010Z,1.95
2022-10-01T06:06:44.192Z,2.05
2022-10-01T06:09:35.362Z,2.00
2022-10-01T06:12:27.021Z,1.77
2022-10-01T06:15:18.933Z,1.95
2022-10-01T06:18:12.306Z,2.02
2022-10-01T06:21:03.390Z,2.50
2022-10-01T06:23:54.399Z,1.90
2022-10-01T06:26:45.538Z,2.05
2022-10-01T06:29:36.881Z,2.37
2022-10-01T06:32:31.591Z,2.35
2022-10-01T06:35:21.204Z,2.67
2022-10-01T06:38:12.946Z,2.87
2022-10-01T06:41:05.334Z,2.30
2022-10-01T06:43:56.348Z,2.40
2022-10-01T06:46:47.703Z,3.02
2022-10-01T06:49:39.288Z,2.80
2022-10-01T06:52:48.401Z,2.60
2022-10-01T06:55:40.285Z,2.40
2022-10-01T06:58:32.081Z,2.55
2022-10-01T07:01:23.630Z,2.60
2022-10-01T07:04:15.195Z,2.70
2022-10-01T07:07:07.841Z,2.90
2022-10-01T07:09:59.705Z,2.67
2022-10-01T07:12:51.879Z,2.80
2022-10-01T07:15:43.511Z,2.37
2022-10-01T07:18:35.164Z,2.92
2022-10-01T07:21:26.365Z,2.52
2022-10-01T07:24:17.842Z,3.15
2022-10-01T07:27:10.061Z,2.90
2022-10-01T07:30:01.676Z,2.52
2022-10-01T07:32:54.541Z,2.80
2022-10-01T07:38:23.751Z,2.90
2022-10-01T07:41:16.921Z,2.90
2022-10-01T07:44:08.771Z,3.25
2022-10-01T07:47:00.493Z,3.15
2022-10-01T07:49:52.275Z,3.17
2022-10-01T07:52:43.906Z,3.12
2022-10-01T07:58:15.112Z,4.00
2022-10-01T08:01:07.447Z,4.67
2022-10-01T08:03:59.091Z,4.10
2022-10-01T08:09:31.952Z,3.50
2022-10-01T08:15:03.028Z,4.97
2022-10-01T08:17:54.205Z,4.30
2022-10-01T08:20:45.600Z,3.70
2022-10-01T08:23:37.059Z,4.85
2022-10-01T08:26:28.672Z,3.20
2022-10-01T08:29:20.586Z,3.33
2022-10-01T08:32:12.471Z,2.75
2022-10-01T08:35:04.958Z,2.80
2022-10-01T08:37:56.921Z,2.80
2022-10-01T08:40:51.931Z,3.30
2022-10-01T08:43:43.848Z,3.45
2022-10-01T08:46:37.980Z,3.70
2022-10-01T08:54:58.643Z,3.40
2022-10-01T09:00:45.468Z,3.77
2022-10-01T09:03:36.695Z,5.00
2022-10-01T09:09:22.624Z,5.17
2022-10-01T09:12:22.792Z,4.70
2022-10-01T09:15:22.116Z,4.22
2022-10-01T09:21:00.209Z,5.12
2022-10-01T09:24:00.079Z,4.40
2022-10-01T09:26:51.575Z,4.50
2022-10-01T09:29:47.350Z,5.22
2022-10-01T09:35:35.226Z,7.58
2022-10-01T09:38:29.697Z,8.33
2022-10-01T09:44:00.228Z,6.35
2022-10-01T09:46:51.648Z,6.47
2022-10-01T09:49:45.784Z,4.90
2022-10-01T09:52:39.391Z,4.15
2022-10-01T09:55:34.766Z,6.45
2022-10-01T09:58:29.214Z,4.42
2022-10-01T10:04:00.150Z,4.20
2022-10-01T10:06:53.391Z,4.60
2022-10-01T10:09:46.625Z,4.78
2022-10-01T10:12:39.118Z,4.60
2022-10-01T10:18:21.532Z,5.08
2022-10-01T10:21:16.574Z,5.45
2022-10-01T10:24:11.267Z,9.38
2022-10-01T10:29:42.839Z,6.40
2022-10-01T10:32:34.316Z,6.92
2022-10-01T10:35:28.674Z,7.05
2022-10-01T10:38:21.016Z,5.55
2022-10-01T10:43:51.685Z,5.03
2022-10-01T10:46:46.289Z,5.12
2022-10-01T10:49:40.991Z,4.67
2022-10-01T10:52:36.388Z,4.20
2022-10-01T10:58:14.592Z,5.25
2022-10-01T11:06:38.424Z,5.50
2022-10-01T11:09:33.487Z,4.83
2022-10-01T11:18:33.168Z,6.35
2022-10-01T11:21:39.374Z,5.12
2022-10-01T11:24:42.622Z,4.70
2022-10-01T11:27:41.084Z,4.15
2022-10-01T11:30:35.700Z,5.03
2022-10-01T11:36:09.466Z,4.92
2022-10-01T11:39:04.446Z,5.17
2022-10-01T11:41:58.814Z,4.85
2022-10-01T11:44:56.270Z,5.05
2022-10-01T11:47:51.959Z,5.17
2022-10-01T11:50:46.714Z,5.70
2022-10-01T11:53:43.708Z,4.95
2022-10-01T11:56:55.437Z,4.85
2022-10-01T11:59:50.166Z,5.55
2022-10-01T12:02:46.784Z,5.15
2022-10-01T12:05:39.200Z,5.30
2022-10-01T12:08:34.327Z,5.22
2022-10-01T12:14:06.667Z,4.83
2022-10-01T12:17:03.267Z,4.60
2022-10-01T12:19:57.470Z,3.45
2022-10-01T12:22:49.850Z,3.83
2022-10-01T12:25:46.977Z,4.03
2022-10-01T12:28:42.066Z,4.00
2022-10-01T12:31:36.303Z,2.47
2022-10-01T12:34:35.245Z,2.95
2022-10-01T12:40:18.217Z,2.42
2022-10-01T12:43:37.437Z,1.95
2022-10-01T12:49:18.857Z,1.40
2022-10-01T12:52:14.151Z,1.20
2022-10-01T12:57:56.028Z,1.30
2022-10-01T13:00:50.883Z,1.22
2022-10-01T13:04:07.617Z,1.40
2022-10-01T13:09:54.211Z,0.90
2022-10-01T13:12:57.005Z,1.10
2022-10-01T13:15:51.716Z,1.10
2022-10-01T13:18:49.404Z,1.10
2022-10-01T13:21:50.801Z,1.20
2022-10-01T13:24:45.687Z,1.22
2022-10-01T13:30:20.347Z,1.22
2022-10-01T13:33:26.429Z,1.30
2022-10-01T13:36:19.244Z,1.40
2022-10-01T13:39:22.632Z,1.15
2022-10-01T13:42:23.506Z,1.17
2022-10-01T13:45:27.651Z,1.50
2022-10-01T13:48:23.683Z,1.42
2022-10-01T13:51:16.790Z,1.22
2022-10-01T13:54:13.515Z,1.25
2022-10-01T13:57:12.809Z,1.30
2022-10-01T14:00:10.682Z,1.00
2022-10-01T14:03:09.191Z,1.00
2022-10-01T14:08:44.708Z,1.22
2022-10-01T14:14:35.688Z,0.80
2022-10-01T14:17:30.652Z,1.25
2022-10-01T14:23:08.822Z,0.80
2022-10-01T14:26:03.254Z,0.70
2022-10-01T14:31:51.037Z,0.90
2022-10-01T14:37:31.927Z,1.00
2022-10-01T14:43:04.266Z,2.47
2022-10-01T14:45:58.316Z,1.52
2022-10-01T14:48:59.055Z,1.67
2022-10-01T14:51:56.777Z,1.40
2022-10-01T14:54:52.610Z,2.20
2022-10-01T15:00:24.239Z,3.00
2022-10-01T15:03:16.359Z,3.65
2022-10-01T15:06:12.726Z,6.10
2022-10-01T15:09:17.979Z,2.30
2022-10-01T15:12:11.314Z,2.20
2022-10-01T15:15:02.900Z,2.47
2022-10-01T15:20:36.957Z,1.90
2022-10-01T15:23:31.874Z,1.80
2022-10-01T15:26:27.786Z,2.75
2022-10-01T15:32:35.553Z,2.65
2022-10-01T15:38:17.279Z,3.67
2022-10-01T15:41:31.551Z,3.00
2022-10-01T15:47:00.369Z,3.30
2022-10-01T15:50:06.497Z,4.17
2022-10-01T15:53:04.232Z,3.80
2022-10-01T15:55:58.979Z,3.27
2022-10-01T15:58:58.884Z,3.90
2022-10-01T16:04:40.087Z,2.70
2022-10-01T16:07:35.965Z,3.47
2022-10-01T16:10:41.842Z,3.67
2022-10-01T16:13:48.018Z,4.35
2022-10-01T16:19:33.074Z,3.20
2022-10-01T16:22:27.353Z,3.20
2022-10-01T16:28:36.852Z,2.87
2022-10-01T16:31:32.130Z,3.00
2022-10-01T16:34:29.639Z,2.85
2022-10-01T16:43:20.512Z,3.05
2022-10-01T16:46:29.969Z,2.95
2022-10-01T16:49:27.548Z,3.87
2022-10-01T16:52:20.074Z,3.95
2022-10-01T16:58:04.803Z,5.00
2022-10-01T17:00:56.231Z,5.42
2022-10-01T17:03:50.790Z,5.20
2022-10-01T17:06:42.612Z,5.40
2022-10-01T17:09:35.108Z,4.87
2022-10-01T17:12:27.340Z,4.90
2022-10-01T17:15:26.277Z,5.33
2022-10-01T17:18:17.978Z,4.30
2022-10-01T17:21:11.640Z,4.12
2022-10-01T17:24:03.450Z,4.10
2022-10-01T17:26:55.452Z,3.85
2022-10-01T17:29:48.212Z,4.37
2022-10-01T17:32:40.677Z,3.92
2022-10-01T17:35:32.454Z,3.75
2022-10-01T17:38:24.418Z,4.40
2022-10-01T17:43:54.421Z,5.90
2022-10-01T17:46:45.917Z,5.92
2022-10-01T17:49:41.817Z,6.45
2022-10-01T17:52:40.529Z,7.22
2022-10-01T17:58:16.728Z,7.22
2022-10-01T18:01:14.571Z,6.58
2022-10-01T18:04:06.112Z,8.70
2022-10-01T18:09:38.460Z,8.85
2022-10-01T18:12:29.975Z,10.00
2022-10-01T18:23:36.846Z,7.92
2022-10-01T18:26:28.227Z,8.15
2022-10-01T18:29:22.167Z,8.93
2022-10-01T18:32:19.089Z,10.70
2022-10-01T18:38:11.632Z,12.05
2022-10-01T18:43:56.952Z,12.30
2022-10-01T18:50:02.252Z,9.73
2022-10-01T18:53:02.364Z,13.13
2022-10-01T18:59:11.104Z,10.60
2022-10-01T19:06:13.368Z,9.53
2022-10-01T19:09:18.399Z,9.88
2022-10-01T19:15:17.832Z,8.38
2022-10-01T19:21:32.336Z,8.85
2022-10-01T19:24:44.764Z,9.30
2022-10-01T19:27:51.612Z,8.23
2022-10-01T19:37:42.681Z,9.60
2022-10-01T19:43:53.560Z,9.35
2022-10-01T19:46:47.735Z,8.93
2022-10-01T19:49:44.473Z,9.63
2022-10-01T19:52:44.208Z,10.25
2022-10-01T19:55:38.917Z,10.18
2022-10-01T20:02:03.214Z,8.70
2022-10-01T20:07:50.627Z,10.20
2022-10-01T20:13:34.957Z,9.80
2022-10-01T20:33:43.367Z,9.08
2022-10-01T20:39:41.431Z,8.38
2022-10-01T20:45:23.094Z,10.08
2022-10-01T20:48:28.683Z,9.08
2022-10-01T20:51:24.660Z,9.90
2022-10-01T20:57:16.329Z,8.10
2022-10-01T21:00:10.867Z,8.28
2022-10-01T21:08:42.755Z,10.18
2022-10-01T21:11:40.155Z,10.78
2022-10-01T21:14:36.574Z,9.23
2022-10-01T21:33:47.563Z,12.80
2022-10-01T21:36:59.817Z,10.38
2022-10-01T21:39:55.242Z,11.18
2022-10-01T21:43:04.500Z,10.58
2022-10-01T21:46:00.258Z,10.97
2022-10-01T21:51:56.876Z,11.00
2022-10-01T21:55:10.166Z,9.75
2022-10-01T21:58:17.829Z,8.95
2022-10-01T22:01:16.505Z,9.55
2022-10-01T22:07:00.929Z,9.70
2022-10-01T22:09:59.352Z,10.25
2022-10-01T22:12:55.220Z,9.60
2022-10-01T22:15:52.342Z,10.08
2022-10-01T22:18:49.282Z,9.85
2022-10-01T22:21:44.899Z,9.98
2022-10-01T22:24:43.607Z,9.70
2022-10-01T22:27:38.624Z,9.88
2022-10-01T22:33:14.704Z,9.75
2022-10-01T22:38:55.682Z,8.80
2022-10-01T22:41:53.049Z,10.38
2022-10-01T22:44:44.658Z,10.07
2022-10-01T22:47:48.080Z,9.08
2022-10-01T22:53:34.642Z,7.75
2022-10-01T22:56:32.763Z,7.30
2022-10-01T22:59:28.085Z,7.58
2022-10-01T23:02:26.419Z,7.00
2022-10-01T23:05:26.759Z,6.45
2022-10-01T23:08:23.039Z,6.78
2022-10-01T23:11:23.499Z,6.87
2022-10-01T23:14:20.714Z,6.45
2022-10-01T23:17:15.793Z,7.00
2022-10-01T23:23:19.245Z,7.22
2022-10-01T23:26:27.997Z,7.45
2022-10-01T23:29:30.420Z,7.20
2022-10-01T23:32:31.975Z,8.20
2022-10-01T23:35:26.683Z,9.30
2022-10-01T23:38:32.317Z,14.03
2022-10-01T23:44:11.822Z,11.57
2022-10-01T23:47:06.110Z,9.48
2022-10-01T23:49:59.747Z,9.35
2022-10-01T23:53:00.744Z,10.20
2022-10-01T23:56:34.188Z,8.75
